Time;durP1;ratioP1;P1;durP2;ratioP2;P2;SDS_P1;SDS_P2;PMS_P1;PMS_P2;Temp;Humidity;BMP_temperature;BMP_pressure;BME280_temperature;BME280_humidity;BME280_pressure;Samples;Min_cycle;Max_cycle;Signal;HPM_P1;HPM_P2
2021/12/30 00:01:37;;;;;;;;;;;9.70;99.90;;;;;;5050638;28;20056;-60
2021/12/30 00:04:03;;;;;;;27.30;11.93;;;9.70;99.90;;;;;;5041112;28;19921;-59
2021/12/30 00:06:30;;;;;;;28.58;11.85;;;9.70;99.90;;;;;;5042432;28;20049;-60
2021/12/30 00:08:56;;;;;;;33.90;11.02;;;9.70;99.90;;;;;;5041015;28;20052;-59
2021/12/30 00:11:22;;;;;;;;;;;9.70;99.90;;;;;;5031931;28;20041;-60
2021/12/30 00:13:49;;;;;;;23.70;10.30;;;9.70;99.90;;;;;;5035383;28;20471;-59
2021/12/30 00:16:17;;;;;;;23.63;8.90;;;9.70;99.90;;;;;;5042363;28;20037;-59
2021/12/30 00:18:43;;;;;;;27.70;9.68;;;9.70;99.90;;;;;;5029024;28;20045;-58
2021/12/30 00:21:09;;;;;;;21.65;8.77;;;9.70;99.90;;;;;;5026201;28;20456;-57
2021/12/30 00:23:35;;;;;;;22.60;8.63;;;9.70;99.90;;;;;;5028704;28;20037;-61
2021/12/30 00:26:01;;;;;;;;;;;9.70;99.90;;;;;;5027844;28;20061;-56
2021/12/30 00:28:28;;;;;;;19.70;8.30;;;9.60;99.90;;;;;;5030291;28;19924;-59
2021/12/30 00:30:54;;;;;;;24.95;8.75;;;9.60;99.90;;;;;;5034464;28;20112;-56
2021/12/30 00:33:21;;;;;;;21.33;7.95;;;9.60;99.90;;;;;;5050323;28;20182;-54
2021/12/30 00:35:47;;;;;;;24.98;8.60;;;9.60;99.90;;;;;;5050791;28;20080;-59
2021/12/30 00:38:14;;;;;;;27.10;10.52;;;9.60;99.90;;;;;;5042010;28;20132;-57
2021/12/30 00:40:40;;;;;;;21.60;9.85;;;9.60;99.90;;;;;;5049611;28;20055;-60
2021/12/30 00:43:06;;;;;;;22.98;9.98;;;9.60;99.90;;;;;;5042048;28;20044;-55
2021/12/30 00:45:34;;;;;;;24.73;9.98;;;9.60;99.90;;;;;;5046762;28;20401;-61
2021/12/30 00:48:00;;;;;;;27.50;10.68;;;9.60;99.90;;;;;;5043027;28;21770;-60
2021/12/30 00:50:26;;;;;;;;;;;9.60;99.90;;;;;;5050250;28;20052;-60
2021/12/30 00:52:52;;;;;;;25.35;10.50;;;9.60;99.90;;;;;;5046817;28;19968;-60
2021/12/30 00:55:18;;;;;;;29.25;10.23;;;9.60;99.90;;;;;;5049489;28;20040;-60
2021/12/30 00:57:44;;;;;;;;;;;9.60;99.90;;;;;;5042468;28;20508;-59
2021/12/30 01:00:14;;;;;;;25.38;8.10;;;9.50;99.90;;;;;;5047819;28;20415;-59
2021/12/30 01:02:40;;;;;;;23.10;9.30;;;9.60;99.90;;;;;;5065772;28;20044;-60
2021/12/30 01:05:06;;;;;;;;;;;9.60;99.90;;;;;;5044903;28;20033;-59
2021/12/30 01:07:31;;;;;;;20.05;8.35;;;9.50;99.90;;;;;;5060790;28;20003;-59
2021/12/30 01:09:57;;;;;;;;;;;9.50;99.90;;;;;;5056353;28;20033;-59
2021/12/30 01:12:23;;;;;;;17.58;7.55;;;9.50;99.90;;;;;;5057691;28;19967;-60
2021/12/30 01:14:49;;;;;;;37.70;9.70;;;9.50;99.90;;;;;;5056304;28;20037;-58
2021/12/30 01:18:23;;;;;;;;;;;9.40;99.90;;;;;;5059009;28;21349;-56
2021/12/30 01:20:01;;;;;;;21.95;8.50;;;9.40;99.90;;;;;;5050427;28;19927;-60
2021/12/30 01:22:27;;;;;;;;;;;9.40;99.90;;;;;;5057158;28;20039;-60
2021/12/30 01:24:53;;;;;;;29.67;9.35;;;9.40;99.90;;;;;;5057354;28;19920;-61
2021/12/30 01:27:20;;;;;;;25.45;8.48;;;9.30;99.90;;;;;;5057929;28;20094;-59
2021/12/30 01:29:47;;;;;;;22.30;7.28;;;9.30;99.90;;;;;;5054190;28;20045;-60
2021/12/30 01:32:13;;;;;;;25.67;8.05;;;9.30;99.90;;;;;;5055279;28;20050;-59
2021/12/30 01:34:38;;;;;;;;;;;9.30;99.90;;;;;;5056019;28;20419;-58
2021/12/30 01:37:05;;;;;;;22.23;6.82;;;9.30;99.90;;;;;;5060265;28;19970;-60
2021/12/30 01:39:33;;;;;;;24.27;6.80;;;9.30;99.90;;;;;;5056804;28;20429;-60
2021/12/30 01:41:59;;;;;;;25.60;7.55;;;9.30;99.90;;;;;;5066503;28;20127;-60
2021/12/30 01:44:28;;;;;;;19.92;6.18;;;9.30;99.90;;;;;;5058162;28;20041;-55
2021/12/30 01:46:54;;;;;;;23.08;6.50;;;9.30;99.90;;;;;;5033860;28;20129;-61
2021/12/30 01:49:21;;;;;;;26.08;6.93;;;9.30;99.90;;;;;;5022426;28;20564;-60
2021/12/30 01:51:48;;;;;;;21.27;6.43;;;9.20;99.90;;;;;;5018055;28;20045;-57
2021/12/30 01:54:14;;;;;;;25.33;5.38;;;9.20;99.90;;;;;;5024068;28;20034;-60
2021/12/30 01:56:40;;;;;;;;;;;9.20;99.90;;;;;;5016167;28;20127;-60
2021/12/30 01:59:06;;;;;;;17.70;5.03;;;9.20;99.90;;;;;;5019276;28;19917;-59
2021/12/30 02:01:32;;;;;;;18.90;5.40;;;9.20;99.90;;;;;;5018873;28;20046;-60
2021/12/30 02:03:58;;;;;;;;;;;9.20;99.90;;;;;;5024813;28;20099;-61
2021/12/30 02:06:24;;;;;;;20.70;5.45;;;9.20;99.90;;;;;;5026078;28;20004;-60
2021/12/30 02:08:51;;;;;;;;;;;9.20;99.90;;;;;;5027633;28;20045;-59
2021/12/30 02:11:21;;;;;;;22.38;5.95;;;9.20;99.90;;;;;;5028993;28;19921;-59
2021/12/30 02:13:51;;;;;;;29.35;5.80;;;9.20;99.90;;;;;;5028480;28;20117;-59
2021/12/30 02:16:18;;;;;;;26.05;6.80;;;9.10;99.90;;;;;;5037264;28;20120;-60
2021/12/30 02:18:44;;;;;;;42.30;8.65;;;9.10;99.90;;;;;;5049314;28;20051;-60
2021/12/30 02:21:10;;;;;;;;;;;9.10;99.90;;;;;;5046325;28;20041;-59
2021/12/30 02:23:37;;;;;;;27.08;5.70;;;9.10;99.90;;;;;;5044060;28;19948;-59
2021/12/30 02:26:08;;;;;;;23.77;5.22;;;9.10;99.90;;;;;;5047878;28;20049;-59
2021/12/30 02:28:36;;;;;;;27.20;6.82;;;9.20;99.90;;;;;;5040939;28;20045;-58
2021/12/30 02:31:07;;;;;;;20.98;5.53;;;9.10;99.90;;;;;;5043658;28;20083;-59
2021/12/30 02:33:33;;;;;;;29.67;6.80;;;9.10;99.90;;;;;;5044291;28;20037;-59
2021/12/30 02:35:59;;;;;;;24.38;6.05;;;9.10;99.90;;;;;;5044025;28;20049;-60
2021/12/30 02:38:25;;;;;;;;;;;9.10;99.90;;;;;;5037905;28;20485;-60
2021/12/30 02:40:55;;;;;;;29.10;5.60;;;9.10;99.90;;;;;;5044724;28;19917;-60
2021/12/30 02:43:26;;;;;;;21.27;5.82;;;9.10;99.90;;;;;;5037295;28;20045;-59
2021/12/30 02:45:52;;;;;;;24.85;5.38;;;9.10;99.90;;;;;;5047821;28;20052;-61
2021/12/30 02:48:21;;;;;;;22.77;5.28;;;9.00;99.90;;;;;;5039502;28;20040;-60
2021/12/30 02:50:49;;;;;;;23.02;5.03;;;9.10;99.90;;;;;;5045007;28;20106;-61
2021/12/30 02:53:15;;;;;;;26.92;5.93;;;9.10;99.90;;;;;;5045735;28;20701;-61
2021/12/30 02:55:41;;;;;;;;;;;9.10;99.90;;;;;;5049163;28;20174;-58
2021/12/30 02:58:07;;;;;;;20.48;4.82;;;9.00;99.90;;;;;;5049637;28;19917;-58
2021/12/30 03:00:33;;;;;;;26.58;6.25;;;9.00;99.90;;;;;;5041478;28;20045;-61
2021/12/30 03:02:59;;;;;;;21.45;5.22;;;9.00;99.90;;;;;;5044029;28;20554;-61
2021/12/30 03:05:24;;;;;;;;;;;9.00;99.90;;;;;;5043372;28;20089;-60
2021/12/30 03:07:53;;;;;;;19.25;5.50;;;9.00;99.90;;;;;;5043048;28;20012;-59
2021/12/30 03:10:22;;;;;;;26.58;5.40;;;9.00;99.90;;;;;;5044358;28;20167;-60
2021/12/30 03:12:56;;;;;;;23.48;4.88;;;9.00;99.90;;;;;;5038612;28;20045;-59
2021/12/30 03:15:23;;;;;;;29.23;5.15;;;9.00;99.90;;;;;;5039913;28;20045;-60
2021/12/30 03:17:50;;;;;;;15.43;4.55;;;8.90;99.90;;;;;;5040127;28;20728;-60
2021/12/30 03:20:15;;;;;;;36.42;6.97;;;8.90;99.90;;;;;;5043782;28;20071;-60
2021/12/30 03:22:42;;;;;;;;;;;8.90;99.90;;;;;;5037995;28;20049;-58
2021/12/30 03:25:11;;;;;;;24.25;4.72;;;8.90;99.90;;;;;;5042640;28;20398;-59
2021/12/30 03:27:36;;;;;;;30.70;5.57;;;8.90;99.90;;;;;;5040731;28;20179;-59
2021/12/30 03:30:07;;;;;;;;;;;8.90;99.90;;;;;;5044346;28;20139;-59
2021/12/30 03:32:32;;;;;;;31.70;5.97;;;9.00;99.90;;;;;;5043331;28;19920;-59
2021/12/30 03:34:58;;;;;;;;;;;9.00;99.90;;;;;;5044492;28;20041;-60
2021/12/30 03:37:26;;;;;;;38.08;6.03;;;9.00;99.90;;;;;;5046805;28;19916;-58
2021/12/30 03:39:52;;;;;;;26.65;6.60;;;8.90;99.90;;;;;;5044594;28;20037;-60
2021/12/30 03:42:17;;;;;;;;;;;8.90;99.90;;;;;;5062012;28;20044;-60
2021/12/30 03:44:43;;;;;;;32.35;6.03;;;8.90;99.90;;;;;;5047433;28;19923;-59
2021/12/30 03:47:14;;;;;;;23.50;5.20;;;9.00;99.90;;;;;;5043924;28;20052;-60
2021/12/30 03:49:44;;;;;;;36.15;6.15;;;9.00;99.90;;;;;;5042031;28;20047;-59
2021/12/30 03:52:11;;;;;;;27.60;6.20;;;9.00;99.90;;;;;;5043480;28;20120;-59
2021/12/30 03:54:37;;;;;;;34.75;5.65;;;9.00;99.90;;;;;;5040583;28;20098;-60
2021/12/30 03:57:03;;;;;;;25.40;5.85;;;9.00;99.90;;;;;;5049196;28;20072;-61
2021/12/30 03:59:29;;;;;;;;;;;9.10;99.90;;;;;;5044567;28;20040;-60
2021/12/30 04:01:54;;;;;;;31.52;5.43;;;9.10;99.90;;;;;;5049662;28;19919;-58
2021/12/30 04:04:20;;;;;;;;;;;9.10;99.90;;;;;;5050433;28;20033;-58
2021/12/30 04:06:45;;;;;;;23.30;5.28;;;9.10;99.90;;;;;;5051308;28;20435;-58
2021/12/30 04:09:12;;;;;;;;;;;9.10;99.90;;;;;;5043165;28;20551;-58
2021/12/30 04:11:37;;;;;;;22.73;5.25;;;9.10;99.90;;;;;;5050068;28;19927;-60
2021/12/30 04:14:04;;;;;;;;;;;9.20;99.90;;;;;;5043537;28;20116;-61
2021/12/30 04:16:30;;;;;;;37.20;6.33;;;9.10;99.90;;;;;;5049682;28;19912;-60
2021/12/30 04:18:56;;;;;;;24.63;4.90;;;9.10;99.90;;;;;;5042842;28;20451;-60
2021/12/30 04:21:23;;;;;;;;;;;9.20;99.90;;;;;;5048037;28;20041;-59
2021/12/30 04:23:50;;;;;;;18.17;5.13;;;9.20;99.90;;;;;;5055006;28;19916;-58
2021/12/30 04:26:15;;;;;;;16.13;5.47;;;9.20;99.90;;;;;;5049749;28;20200;-60
2021/12/30 04:28:41;;;;;;;;;;;9.20;99.90;;;;;;5043887;28;20598;-60
2021/12/30 04:31:06;;;;;;;24.92;6.75;;;9.20;99.90;;;;;;5045519;28;19913;-59
2021/12/30 04:33:32;;;;;;;;;;;9.30;99.90;;;;;;5039151;28;20075;-58
2021/12/30 04:35:59;;;;;;;17.55;4.95;;;9.30;99.90;;;;;;5049859;28;19919;-60
2021/12/30 04:38:28;;;;;;;15.98;5.03;;;9.30;99.90;;;;;;5042368;28;20127;-60
2021/12/30 04:40:54;;;;;;;19.30;4.88;;;9.20;99.90;;;;;;5046555;28;20045;-61
2021/12/30 04:43:20;;;;;;;14.40;4.88;;;9.30;99.90;;;;;;5045126;28;20040;-60
2021/12/30 04:45:48;;;;;;;;;;;9.20;99.90;;;;;;5048461;28;20045;-59
2021/12/30 04:48:16;;;;;;;8.63;3.10;;;9.30;99.90;;;;;;5019470;28;19924;-61
2021/12/30 04:50:42;;;;;;;8.27;2.80;;;9.30;99.90;;;;;;5029025;28;20073;-60
2021/12/30 04:53:07;;;;;;;;;;;9.30;99.90;;;;;;5025566;28;20071;-60
2021/12/30 04:55:33;;;;;;;6.05;2.72;;;9.30;99.90;;;;;;5029501;28;19978;-61
2021/12/30 04:57:59;;;;;;;5.65;2.10;;;9.30;99.90;;;;;;5019591;28;20037;-60
2021/12/30 05:00:24;;;;;;;;;;;9.30;99.90;;;;;;5032835;28;20068;-59
2021/12/30 05:03:10;;;;;;;5.18;1.60;;;9.30;99.90;;;;;;5040624;28;19947;-60
2021/12/30 05:05:42;;;;;;;5.22;1.35;;;9.30;99.90;;;;;;5022174;28;20041;-61
2021/12/30 05:08:08;;;;;;;2.38;1.45;;;9.40;99.90;;;;;;5025526;28;20103;-59
2021/12/30 05:10:34;;;;;;;;;;;9.40;99.90;;;;;;5024334;28;20112;-57
2021/12/30 05:13:02;;;;;;;4.20;1.13;;;9.40;99.90;;;;;;5029777;28;20358;-60
2021/12/30 05:15:28;;;;;;;4.13;1.00;;;9.40;99.90;;;;;;5032298;28;20046;-60
2021/12/30 05:17:54;;;;;;;;;;;9.40;99.90;;;;;;5060524;28;20111;-59
2021/12/30 05:20:19;;;;;;;1.98;0.80;;;9.50;99.90;;;;;;5056745;28;20369;-60
2021/12/30 05:22:45;;;;;;;;;;;9.50;99.90;;;;;;5050435;28;20033;-61
2021/12/30 05:25:12;;;;;;;1.27;0.70;;;9.50;99.90;;;;;;5056928;28;19917;-58
2021/12/30 05:27:38;;;;;;;2.92;0.90;;;9.50;99.90;;;;;;5045889;28;20037;-61
2021/12/30 05:30:07;;;;;;;2.20;0.60;;;9.50;99.90;;;;;;5044391;28;20064;-61
2021/12/30 05:32:33;;;;;;;1.02;0.60;;;9.60;99.90;;;;;;5027704;28;20033;-61
2021/12/30 05:34:58;;;;;;;;;;;9.60;99.90;;;;;;5028105;28;20037;-62
2021/12/30 05:37:24;;;;;;;0.65;0.45;;;9.60;99.90;;;;;;5015633;28;20611;-62
2021/12/30 05:39:49;;;;;;;;;;;9.60;99.90;;;;;;5007136;28;20042;-62
2021/12/30 05:42:15;;;;;;;1.38;0.50;;;9.60;99.90;;;;;;5016293;28;19923;-63
2021/12/30 05:44:41;;;;;;;;;;;9.60;99.90;;;;;;5021015;28;20041;-63
2021/12/30 05:47:07;;;;;;;1.00;0.30;;;9.70;99.90;;;;;;5027101;28;19925;-60
2021/12/30 05:49:33;;;;;;;1.58;0.43;;;9.70;99.90;;;;;;5027412;28;20046;-64
2021/12/30 05:51:58;;;;;;;;;;;9.70;99.90;;;;;;5027929;28;20113;-61
2021/12/30 05:54:24;;;;;;;0.60;0.50;;;9.70;99.90;;;;;;5028424;28;19972;-60
2021/12/30 05:56:50;;;;;;;0.20;0.20;;;9.70;99.90;;;;;;5028547;28;20049;-62
2021/12/30 05:59:16;;;;;;;;;;;9.80;99.90;;;;;;5028274;28;20649;-59
2021/12/30 06:01:41;;;;;;;0.20;0.20;;;9.80;99.90;;;;;;5038801;28;19964;-58
2021/12/30 06:04:07;;;;;;;;;;;9.80;99.90;;;;;;5046460;28;20083;-61
2021/12/30 06:06:32;;;;;;;0.90;0.40;;;9.90;99.90;;;;;;5047209;28;19920;-63
2021/12/30 06:08:58;;;;;;;;;;;9.90;99.90;;;;;;5040674;28;20040;-62
2021/12/30 06:11:24;;;;;;;0.20;0.20;;;10.00;99.90;;;;;;5047448;28;19963;-61
2021/12/30 06:13:49;;;;;;;;;;;10.00;99.90;;;;;;5041379;28;20504;-62
2021/12/30 06:16:15;;;;;;;1.98;0.20;;;10.00;99.90;;;;;;5045951;28;19978;-62
2021/12/30 06:18:40;;;;;;;;;;;10.00;99.90;;;;;;5041479;28;20044;-61
2021/12/30 06:21:06;;;;;;;0.32;0.20;;;10.10;99.90;;;;;;5046660;28;19916;-60
2021/12/30 06:23:31;;;;;;;;;;;10.10;99.90;;;;;;5039159;28;20079;-59
2021/12/30 06:25:57;;;;;;;0.40;0.20;;;10.10;99.90;;;;;;5048043;28;19927;-60
2021/12/30 06:28:22;;;;;;;;;;;10.10;99.90;;;;;;5041119;28;20075;-61
2021/12/30 06:30:48;;;;;;;0.50;0.10;;;10.10;99.90;;;;;;5045234;28;19924;-62
2021/12/30 06:33:13;;;;;;;;;;;10.10;99.90;;;;;;5048806;28;20075;-58
2021/12/30 06:35:39;;;;;;;0.10;0.10;;;10.10;99.90;;;;;;5054770;28;19916;-62
2021/12/30 06:38:05;;;;;;;;;;;10.10;99.90;;;;;;5056552;28;20044;-62
2021/12/30 06:40:31;;;;;;;0.10;0.10;;;10.10;99.90;;;;;;5058588;28;20020;-62
2021/12/30 06:42:56;;;;;;;;;;;10.10;99.90;;;;;;5051505;28;20186;-61
2021/12/30 06:45:22;;;;;;;0.10;0.10;;;10.20;99.90;;;;;;5054475;28;20010;-61
2021/12/30 06:47:48;;;;;;;;;;;10.20;99.90;;;;;;5062236;28;20040;-61
2021/12/30 06:50:15;;;;;;;2.47;0.28;;;10.20;99.90;;;;;;5057201;28;19998;-62
2021/12/30 06:52:43;;;;;;;0.52;0.20;;;10.20;99.90;;;;;;5059627;28;20484;-61
2021/12/30 06:55:09;;;;;;;0.38;0.30;;;10.20;99.90;;;;;;5056870;28;20048;-62
2021/12/30 06:57:35;;;;;;;0.20;0.10;;;10.30;99.90;;;;;;5057904;28;20127;-61
2021/12/30 07:00:07;;;;;;;0.20;0.20;;;10.30;99.90;;;;;;5055235;28;20041;-61
2021/12/30 07:02:34;;;;;;;0.50;0.20;;;10.30;99.90;;;;;;5058586;28;20044;-62
2021/12/30 07:04:59;;;;;;;1.17;0.10;;;10.30;99.90;;;;;;5048485;28;20033;-62
2021/12/30 07:07:25;;;;;;;;;;;10.30;99.90;;;;;;5058162;28;20046;-62
2021/12/30 07:09:51;;;;;;;0.28;0.10;;;10.30;99.90;;;;;;5056130;28;20548;-62
2021/12/30 07:12:17;;;;;;;0.43;0.20;;;10.40;99.90;;;;;;5057580;28;20032;-62
2021/12/30 07:14:43;;;;;;;;;;;10.40;99.90;;;;;;5057472;28;20040;-61
2021/12/30 07:17:09;;;;;;;0.10;0.10;;;10.40;99.90;;;;;;5057843;28;20372;-62
2021/12/30 07:19:34;;;;;;;;;;;10.40;99.90;;;;;;5052352;28;20036;-62
2021/12/30 07:22:00;;;;;;;0.10;0.10;;;10.40;99.90;;;;;;5055286;28;20379;-60
2021/12/30 07:24:25;;;;;;;;;;;10.40;99.90;;;;;;5052708;28;20143;-62
2021/12/30 07:26:52;;;;;;;0.10;0.10;;;10.40;99.90;;;;;;5050685;28;19931;-63
2021/12/30 07:29:18;;;;;;;0.10;0.10;;;10.40;99.90;;;;;;5045982;28;20043;-61
2021/12/30 07:31:44;;;;;;;3.17;1.30;;;10.40;99.90;;;;;;5057719;28;20540;-63
2021/12/30 07:34:09;;;;;;;;;;;10.40;99.90;;;;;;5046567;28;20034;-62
2021/12/30 07:36:35;;;;;;;0.43;0.20;;;10.40;99.90;;;;;;5066136;28;19923;-62
2021/12/30 07:39:01;;;;;;;;;;;10.50;99.90;;;;;;5060574;28;20168;-62
2021/12/30 07:41:26;;;;;;;0.52;0.20;;;10.50;99.90;;;;;;5069129;28;19938;-63
2021/12/30 07:43:52;;;;;;;;;;;10.50;99.90;;;;;;5054977;28;20189;-62
2021/12/30 07:46:17;;;;;;;1.08;0.20;;;10.50;99.90;;;;;;5076308;28;20011;-63
2021/12/30 07:48:43;;;;;;;;;;;10.50;99.90;;;;;;5056401;28;20044;-61
2021/12/30 07:51:09;;;;;;;0.10;0.10;;;10.50;99.90;;;;;;5059034;28;19924;-61
2021/12/30 07:53:34;;;;;;;;;;;10.50;99.90;;;;;;5057018;28;20417;-62
2021/12/30 07:56:02;;;;;;;0.47;0.10;;;10.50;99.90;;;;;;5065302;28;19978;-62
2021/12/30 07:58:28;;;;;;;0.52;0.30;;;10.50;99.90;;;;;;5056958;28;20551;-62
2021/12/30 08:00:54;;;;;;;0.17;0.10;;;10.50;99.90;;;;;;5065389;28;20044;-62
2021/12/30 08:03:19;;;;;;;;;;;10.60;99.90;;;;;;5059161;28;20079;-61
2021/12/30 08:05:45;;;;;;;0.30;0.10;;;10.60;99.90;;;;;;5057815;28;20453;-61
2021/12/30 08:08:11;;;;;;;;;;;10.60;99.90;;;;;;5054103;28;20752;-62
2021/12/30 08:10:37;;;;;;;0.65;0.10;;;10.60;99.90;;;;;;5056043;28;20283;-61
2021/12/30 08:13:02;;;;;;;;;;;10.70;99.90;;;;;;5058971;28;20041;-59
2021/12/30 08:15:28;;;;;;;0.77;0.30;;;10.70;99.90;;;;;;5062988;28;19924;-62
2021/12/30 08:17:54;;;;;;;;;;;10.70;99.90;;;;;;5059829;28;20111;-61
2021/12/30 08:20:22;;;;;;;0.97;0.37;;;10.70;99.90;;;;;;5044730;28;19924;-61
2021/12/30 08:22:48;;;;;;;0.70;0.30;;;10.70;99.90;;;;;;5053814;28;20040;-62
2021/12/30 08:25:14;;;;;;;0.30;0.20;;;10.80;99.90;;;;;;5060086;28;20041;-59
2021/12/30 08:27:41;;;;;;;1.45;0.40;;;10.70;99.90;;;;;;5061719;28;20393;-61
2021/12/30 08:30:10;;;;;;;1.65;0.43;;;10.70;99.90;;;;;;5059286;28;20044;-60
2021/12/30 08:32:35;;;;;;;0.40;0.30;;;10.80;99.90;;;;;;5056262;28;20818;-60
2021/12/30 08:35:01;;;;;;;;;;;10.80;99.90;;;;;;5050907;28;20120;-61
2021/12/30 08:37:27;;;;;;;0.57;0.45;;;10.90;99.90;;;;;;5064271;28;20287;-60
2021/12/30 08:39:53;;;;;;;2.53;0.60;;;10.90;99.90;;;;;;5053646;28;20479;-64
2021/12/30 08:42:25;;;;;;;0.47;0.47;;;11.00;99.90;;;;;;5051982;28;20033;-62
2021/12/30 08:44:52;;;;;;;0.45;0.40;;;11.00;99.90;;;;;;5060939;28;20039;-61
2021/12/30 08:47:17;;;;;;;2.58;0.60;;;11.00;99.90;;;;;;5048907;28;20459;-61
2021/12/30 08:49:46;;;;;;;;;;;11.00;99.90;;;;;;5051093;28;20564;-61
2021/12/30 08:52:14;;;;;;;1.15;0.82;;;11.00;99.90;;;;;;5055460;28;20303;-62
2021/12/30 08:54:39;;;;;;;0.60;0.40;;;11.00;99.90;;;;;;5053825;28;20041;-61
2021/12/30 08:57:05;;;;;;;;;;;11.10;99.90;;;;;;5061542;28;20037;-62
2021/12/30 08:59:31;;;;;;;1.52;0.73;;;11.10;99.90;;;;;;5056933;28;20309;-60
2021/12/30 09:01:56;;;;;;;;;;;11.10;99.90;;;;;;5059285;28;20037;-61
2021/12/30 09:04:22;;;;;;;0.60;0.60;;;11.20;99.90;;;;;;5050213;28;19928;-61
2021/12/30 09:06:47;;;;;;;;;;;11.30;99.90;;;;;;5058491;28;20124;-61
2021/12/30 09:09:13;;;;;;;0.93;0.70;;;11.30;99.90;;;;;;5058594;28;19920;-61
2021/12/30 09:11:39;;;;;;;1.25;0.95;;;11.30;99.90;;;;;;5058820;28;20033;-61
2021/12/30 09:14:04;;;;;;;;;;;11.30;99.90;;;;;;5051788;28;20094;-61
2021/12/30 09:16:30;;;;;;;2.55;0.55;;;11.30;99.90;;;;;;5058985;28;20303;-62
2021/12/30 09:18:56;;;;;;;;;;;11.30;99.90;;;;;;5054444;28;20056;-61
2021/12/30 09:21:22;;;;;;;1.00;0.80;;;11.30;99.90;;;;;;5064719;28;20509;-59
2021/12/30 09:23:48;;;;;;;;;;;11.30;99.90;;;;;;5056248;28;20160;-60
2021/12/30 09:26:14;;;;;;;0.98;0.80;;;11.30;99.90;;;;;;5064679;28;20047;-61
2021/12/30 09:28:40;;;;;;;;;;;11.40;99.90;;;;;;5051895;28;20489;-62
2021/12/30 09:31:05;;;;;;;0.95;0.57;;;11.40;99.90;;;;;;5063087;28;20033;-59
2021/12/30 09:33:31;;;;;;;;;;;11.40;99.90;;;;;;5050009;28;20036;-58
2021/12/30 09:35:59;;;;;;;0.55;0.50;;;11.50;99.90;;;;;;5058006;28;19923;-61
2021/12/30 09:38:24;;;;;;;2.35;0.98;;;11.40;99.90;;;;;;5055890;28;20084;-60
2021/12/30 09:40:50;;;;;;;;;;;11.50;99.90;;;;;;5064309;28;20091;-62
2021/12/30 09:43:16;;;;;;;1.02;0.80;;;11.50;99.90;;;;;;5056527;28;19925;-62
2021/12/30 09:45:41;;;;;;;;;;;11.50;99.90;;;;;;5064020;28;20041;-62
2021/12/30 09:48:10;;;;;;;1.30;0.75;;;11.50;99.90;;;;;;5056724;28;20420;-62
2021/12/30 09:50:55;;;;;;;2.92;0.70;;;11.50;99.90;;;;;;5059533;28;20045;-60
2021/12/30 09:53:24;;;;;;;4.38;0.82;;;11.60;99.90;;;;;;5046712;28;20112;-61
2021/12/30 09:55:51;;;;;;;1.95;0.77;;;11.60;99.90;;;;;;5055736;28;20080;-62
2021/12/30 09:58:18;;;;;;;1.70;0.70;;;11.60;99.90;;;;;;5047786;28;20037;-61
2021/12/30 10:00:45;;;;;;;2.92;0.80;;;11.60;99.90;;;;;;5052339;28;20087;-62
2021/12/30 10:03:10;;;;;;;1.55;0.65;;;11.60;99.90;;;;;;5052172;28;20033;-61
2021/12/30 10:05:38;;;;;;;;;;;11.60;99.90;;;;;;5050622;28;20039;-60
2021/12/30 10:08:20;;;;;;;0.70;0.60;;;11.60;99.90;;;;;;5055730;28;19920;-61
2021/12/30 10:10:51;;;;;;;2.20;0.77;;;11.60;99.90;;;;;;5060072;28;20048;-60
2021/12/30 10:13:24;;;;;;;1.80;0.60;;;11.60;99.90;;;;;;5054904;28;20033;-61
2021/12/30 10:15:53;;;;;;;3.28;0.52;;;11.60;99.90;;;;;;5063611;28;20059;-62
2021/12/30 10:18:19;;;;;;;1.05;0.60;;;11.60;99.90;;;;;;5046982;28;20054;-61
2021/12/30 10:20:47;;;;;;;0.93;0.52;;;11.60;99.90;;;;;;5060460;28;20040;-61
2021/12/30 10:23:21;;;;;;;0.65;0.60;;;11.60;99.90;;;;;;5053166;28;20119;-62
2021/12/30 10:25:50;;;;;;;0.93;0.70;;;11.60;99.90;;;;;;5055399;28;20115;-59
2021/12/30 10:28:20;;;;;;;0.60;0.47;;;11.60;99.90;;;;;;5056669;28;20063;-60
2021/12/30 10:30:46;;;;;;;0.90;0.57;;;11.70;99.90;;;;;;5062048;28;20036;-61
2021/12/30 10:33:17;;;;;;;2.05;0.55;;;11.70;99.90;;;;;;5048359;28;20501;-61
2021/12/30 10:35:43;;;;;;;0.25;0.25;;;11.70;99.90;;;;;;5056453;28;20037;-61
2021/12/30 10:38:10;;;;;;;;;;;11.70;99.90;;;;;;5064477;28;20147;-61
2021/12/30 10:40:39;;;;;;;0.68;0.50;;;11.70;99.90;;;;;;5060730;28;19931;-61
2021/12/30 10:43:38;;;;;;;0.40;0.40;;;11.70;99.90;;;;;;5046082;28;20036;-61
2021/12/30 10:46:03;;;;;;;1.10;0.35;;;11.70;99.90;;;;;;5050684;28;20509;-59
2021/12/30 10:48:29;;;;;;;;;;;11.70;99.90;;;;;;5060019;28;20047;-60
2021/12/30 10:51:32;;;;;;;0.85;0.40;;;11.70;99.90;;;;;;5052720;28;19986;-62
2021/12/30 10:53:59;;;;;;;3.25;0.40;;;11.70;99.90;;;;;;5051640;28;20132;-66
2021/12/30 10:56:30;;;;;;;1.20;0.60;;;11.70;99.90;;;;;;5048457;28;20508;-61
2021/12/30 10:59:12;;;;;;;1.58;0.40;;;11.70;99.90;;;;;;5042961;28;20456;-63
2021/12/30 11:01:44;;;;;;;3.55;0.63;;;11.80;99.90;;;;;;5047311;28;20045;-60
2021/12/30 11:04:10;;;;;;;1.98;0.50;;;11.80;99.90;;;;;;5049738;28;20068;-58
2021/12/30 11:06:37;;;;;;;2.33;0.63;;;11.80;99.90;;;;;;5064039;28;20060;-62
2021/12/30 11:09:12;;;;;;;1.10;0.98;;;11.80;99.90;;;;;;5056465;28;20102;-60
2021/12/30 11:11:44;;;;;;;2.13;0.82;;;11.80;99.90;;;;;;5057788;28;20048;-59
2021/12/30 11:14:19;;;;;;;2.72;0.88;;;11.80;99.90;;;;;;5051745;28;20596;-61
2021/12/30 11:16:52;;;;;;;2.75;0.80;;;11.80;99.90;;;;;;5055885;28;20045;-63
2021/12/30 11:19:19;;;;;;;2.65;0.90;;;11.80;99.90;;;;;;5043853;28;20097;-63
2021/12/30 11:21:47;;;;;;;5.03;0.90;;;11.80;99.90;;;;;;5058543;28;20554;-64
2021/12/30 11:24:13;;;;;;;0.55;0.55;;;11.80;99.90;;;;;;5050426;28;20079;-64
2021/12/30 11:26:39;;;;;;;;;;;11.70;99.90;;;;;;5060990;28;20066;-63
2021/12/30 11:29:06;;;;;;;0.68;0.60;;;11.80;99.90;;;;;;5055724;28;20380;-63
2021/12/30 11:31:32;;;;;;;1.75;0.80;;;11.80;99.90;;;;;;5061272;28;20040;-63
2021/12/30 11:33:59;;;;;;;1.05;0.75;;;11.70;99.90;;;;;;5054926;28;20072;-63
2021/12/30 11:36:25;;;;;;;0.80;0.80;;;11.70;99.90;;;;;;5056958;28;20049;-61
2021/12/30 11:38:51;;;;;;;1.63;0.98;;;11.70;99.90;;;;;;5054234;28;20127;-61
2021/12/30 11:41:21;;;;;;;;;;;11.70;99.90;;;;;;5063541;28;20112;-62
2021/12/30 11:43:49;;;;;;;1.83;1.40;;;11.70;99.90;;;;;;5053164;28;19962;-62
2021/12/30 11:46:44;;;;;;;2.33;1.58;;;11.70;99.90;;;;;;5063393;28;20045;-62
2021/12/30 11:49:12;;;;;;;3.67;1.80;;;11.70;99.90;;;;;;5056215;28;20102;-62
2021/12/30 11:51:53;;;;;;;2.55;2.00;;;11.70;99.90;;;;;;5061235;28;20070;-62
2021/12/30 11:54:41;;;;;;;3.80;2.42;;;11.80;99.90;;;;;;5059473;28;20041;-62
2021/12/30 11:57:35;;;;;;;3.25;2.25;;;11.80;99.90;;;;;;5058787;28;20500;-62
2021/12/30 12:00:33;;;;;;;2.70;2.40;;;11.80;99.90;;;;;;5056800;28;20108;-60
2021/12/30 12:03:02;;;;;;;2.35;2.13;;;11.80;99.90;;;;;;5049603;28;20045;-62
2021/12/30 12:05:43;;;;;;;2.67;2.20;;;11.80;99.90;;;;;;5052317;28;20554;-62
2021/12/30 12:08:12;;;;;;;3.33;2.08;;;11.70;99.90;;;;;;5055014;28;20123;-61
2021/12/30 12:10:40;;;;;;;2.83;2.08;;;11.70;99.90;;;;;;5056488;28;20044;-62
2021/12/30 12:13:31;;;;;;;3.03;2.15;;;11.70;99.90;;;;;;5055934;28;20431;-62
2021/12/30 12:15:57;;;;;;;1.88;1.67;;;11.70;99.90;;;;;;5064680;28;20036;-62
2021/12/30 12:18:25;;;;;;;2.40;1.95;;;11.70;99.90;;;;;;5057133;28;20049;-62
2021/12/30 12:20:53;;;;;;;2.70;1.98;;;11.70;99.90;;;;;;5057499;28;20037;-62
2021/12/30 12:23:42;;;;;;;2.10;1.90;;;11.70;99.90;;;;;;5049011;28;20045;-61
2021/12/30 12:26:14;;;;;;;4.13;2.10;;;11.70;99.90;;;;;;5066687;28;20121;-62
2021/12/30 12:28:42;;;;;;;4.85;2.45;;;11.70;99.90;;;;;;5056936;28;20108;-62
2021/12/30 12:31:09;;;;;;;5.40;2.70;;;11.60;99.90;;;;;;5065274;28;20381;-62
2021/12/30 12:33:37;;;;;;;4.00;3.22;;;11.60;99.90;;;;;;5058154;28;20048;-61
2021/12/30 12:36:18;;;;;;;4.65;2.85;;;11.60;99.90;;;;;;5066305;28;20676;-62
2021/12/30 12:38:48;;;;;;;4.85;3.20;;;11.60;99.90;;;;;;5055029;28;20041;-63
2021/12/30 12:41:31;;;;;;;3.60;2.92;;;11.50;99.90;;;;;;5052643;28;20590;-62
2021/12/30 12:43:57;;;;;;;4.32;3.00;;;11.50;99.90;;;;;;5055213;28;20547;-62
2021/12/30 12:46:38;;;;;;;;;;;11.50;99.90;;;;;;5063009;28;20055;-62
2021/12/30 12:49:06;;;;;;;5.63;2.85;;;11.50;99.90;;;;;;5056551;28;20427;-62
2021/12/30 12:51:33;;;;;;;3.33;2.50;;;11.50;99.90;;;;;;5063038;28;20113;-60
2021/12/30 12:54:05;;;;;;;4.93;2.47;;;11.50;99.90;;;;;;5050458;28;20183;-62
2021/12/30 12:56:37;;;;;;;2.90;2.42;;;11.50;99.90;;;;;;5063706;28;20045;-61
2021/12/30 12:59:12;;;;;;;5.15;2.63;;;11.50;99.90;;;;;;5057541;28;20435;-62
2021/12/30 13:01:39;;;;;;;6.55;2.85;;;11.60;99.90;;;;;;5058086;28;20072;-62
2021/12/30 13:04:07;;;;;;;6.07;2.50;;;11.60;99.90;;;;;;5048917;28;20049;-62
2021/12/30 13:06:42;;;;;;;3.72;2.85;;;11.60;99.90;;;;;;5065844;28;20048;-62
2021/12/30 13:09:17;;;;;;;10.55;2.20;;;11.60;99.90;;;;;;5058889;28;20044;-62
2021/12/30 13:11:46;;;;;;;3.88;2.55;;;11.60;99.90;;;;;;5062208;28;20437;-63
2021/12/30 13:14:18;;;;;;;10.02;2.63;;;11.60;99.90;;;;;;5059759;28;20779;-62